sensor_id;sensor_type;location;lat;lon;timestamp;temperature;humidity
22185;DHT22;11258;52.516;13.318;2023-08-31T00:02:21;17.40;99.90
22185;DHT22;11258;52.516;13.318;2023-08-31T00:04:47;17.40;99.90
22185;DHT22;11258;52.516;13.318;2023-08-31T00:07:12;17.40;99.90
22185;DHT22;11258;52.516;13.318;2023-08-31T00:09:38;17.40;99.90
22185;DHT22;11258;52.516;13.318;2023-08-31T00:12:04;17.40;99.90
22185;DHT22;11258;52.516;13.318;2023-08-31T00:14:31;17.40;99.90
22185;DHT22;11258;52.516;13.318;2023-08-31T00:16:58;17.40;99.90
22185;DHT22;11258;52.516;13.318;2023-08-31T00:19:24;17.40;99.90
22185;DHT22;11258;52.516;13.318;2023-08-31T00:21:50;17.30;99.90
22185;DHT22;11258;52.516;13.318;2023-08-31T00:24:15;17.30;99.90
22185;DHT22;11258;52.516;13.318;2023-08-31T00:26:41;17.30;99.90
22185;DHT22;11258;52.516;13.318;2023-08-31T00:29:09;17.20;99.90
22185;DHT22;11258;52.516;13.318;2023-08-31T00:31:36;17.30;99.90
22185;DHT22;11258;52.516;13.318;2023-08-31T00:34:02;17.30;99.90
22185;DHT22;11258;52.516;13.318;2023-08-31T00:36:30;17.20;99.90
22185;DHT22;11258;52.516;13.318;2023-08-31T00:38:55;17.20;99.90
22185;DHT22;11258;52.516;13.318;2023-08-31T00:41:22;17.20;99.90
22185;DHT22;11258;52.516;13.318;2023-08-31T00:43:48;17.20;99.90
22185;DHT22;11258;52.516;13.318;2023-08-31T00:46:14;17.20;99.90
22185;DHT22;11258;52.516;13.318;2023-08-31T00:48:40;17.20;99.90
22185;DHT22;11258;52.516;13.318;2023-08-31T00:51:07;17.20;99.90
22185;DHT22;11258;52.516;13.318;2023-08-31T00:53:33;17.20;99.90
22185;DHT22;11258;52.516;13.318;2023-08-31T00:56:00;17.20;99.90
22185;DHT22;11258;52.516;13.318;2023-08-31T00:58:26;17.10;99.90
22185;DHT22;11258;52.516;13.318;2023-08-31T01:06:13;17.10;99.90
22185;DHT22;11258;52.516;13.318;2023-08-31T01:09:01;17.00;99.90
22185;DHT22;11258;52.516;13.318;2023-08-31T01:12:06;16.90;99.90
22185;DHT22;11258;52.516;13.318;2023-08-31T01:14:43;16.90;99.90
22185;DHT22;11258;52.516;13.318;2023-08-31T01:17:12;16.90;99.90
22185;DHT22;11258;52.516;13.318;2023-08-31T01:19:50;16.90;99.90
22185;DHT22;11258;52.516;13.318;2023-08-31T01:22:55;16.90;99.90
22185;DHT22;11258;52.516;13.318;2023-08-31T01:25:23;16.80;99.90
22185;DHT22;11258;52.516;13.318;2023-08-31T01:27:50;16.80;99.90
22185;DHT22;11258;52.516;13.318;2023-08-31T01:30:16;16.70;99.90
22185;DHT22;11258;52.516;13.318;2023-08-31T01:32:46;16.70;99.90
22185;DHT22;11258;52.516;13.318;2023-08-31T01:35:14;16.60;99.90
22185;DHT22;11258;52.516;13.318;2023-08-31T01:40:23;16.60;99.90
22185;DHT22;11258;52.516;13.318;2023-08-31T01:42:51;16.60;99.90
22185;DHT22;11258;52.516;13.318;2023-08-31T01:45:20;16.50;99.90
22185;DHT22;11258;52.516;13.318;2023-08-31T01:47:46;16.50;99.90
22185;DHT22;11258;52.516;13.318;2023-08-31T01:50:12;16.50;99.90
22185;DHT22;11258;52.516;13.318;2023-08-31T01:52:38;16.60;99.90
22185;DHT22;11258;52.516;13.318;2023-08-31T01:55:05;16.60;99.90
22185;DHT22;11258;52.516;13.318;2023-08-31T01:57:31;16.60;99.90
22185;DHT22;11258;52.516;13.318;2023-08-31T01:59:57;16.50;99.90
22185;DHT22;11258;52.516;13.318;2023-08-31T02:02:23;16.50;99.90
22185;DHT22;11258;52.516;13.318;2023-08-31T02:04:49;16.40;99.90
22185;DHT22;11258;52.516;13.318;2023-08-31T02:07:16;16.40;99.90
22185;DHT22;11258;52.516;13.318;2023-08-31T02:09:42;16.30;99.90
22185;DHT22;11258;52.516;13.318;2023-08-31T02:12:07;16.30;99.90
22185;DHT22;11258;52.516;13.318;2023-08-31T02:14:35;16.10;99.90
22185;DHT22;11258;52.516;13.318;2023-08-31T02:17:00;16.10;99.90
22185;DHT22;11258;52.516;13.318;2023-08-31T02:19:26;16.10;99.90
22185;DHT22;11258;52.516;13.318;2023-08-31T02:21:52;16.10;99.90
22185;DHT22;11258;52.516;13.318;2023-08-31T02:24:17;16.00;99.90
22185;DHT22;11258;52.516;13.318;2023-08-31T02:26:43;16.00;99.90
22185;DHT22;11258;52.516;13.318;2023-08-31T02:29:09;15.90;99.90
22185;DHT22;11258;52.516;13.318;2023-08-31T02:31:34;15.90;99.90
22185;DHT22;11258;52.516;13.318;2023-08-31T02:34:00;15.90;99.90
22185;DHT22;11258;52.516;13.318;2023-08-31T02:36:25;15.90;99.90
22185;DHT22;11258;52.516;13.318;2023-08-31T02:38:51;15.90;99.90
22185;DHT22;11258;52.516;13.318;2023-08-31T02:41:18;15.80;99.90
22185;DHT22;11258;52.516;13.318;2023-08-31T02:43:44;15.80;99.90
22185;DHT22;11258;52.516;13.318;2023-08-31T02:46:09;15.90;99.90
22185;DHT22;11258;52.516;13.318;2023-08-31T02:48:36;15.80;99.90
22185;DHT22;11258;52.516;13.318;2023-08-31T02:51:01;15.80;99.90
22185;DHT22;11258;52.516;13.318;2023-08-31T02:53:29;15.80;99.90
22185;DHT22;11258;52.516;13.318;2023-08-31T02:55:56;15.80;99.90
22185;DHT22;11258;52.516;13.318;2023-08-31T02:58:22;15.80;99.90
22185;DHT22;11258;52.516;13.318;2023-08-31T03:00:47;15.80;99.90
22185;DHT22;11258;52.516;13.318;2023-08-31T03:03:16;15.80;99.90
22185;DHT22;11258;52.516;13.318;2023-08-31T03:05:42;15.80;99.90
22185;DHT22;11258;52.516;13.318;2023-08-31T03:08:08;15.80;99.90
22185;DHT22;11258;52.516;13.318;2023-08-31T03:10:35;15.80;99.90
22185;DHT22;11258;52.516;13.318;2023-08-31T03:13:01;15.70;99.90
22185;DHT22;11258;52.516;13.318;2023-08-31T03:15:26;15.80;99.90
22185;DHT22;11258;52.516;13.318;2023-08-31T03:17:52;15.70;99.90
22185;DHT22;11258;52.516;13.318;2023-08-31T03:20:18;15.70;99.90
22185;DHT22;11258;52.516;13.318;2023-08-31T03:22:43;15.60;99.90
22185;DHT22;11258;52.516;13.318;2023-08-31T03:25:09;15.60;99.90
22185;DHT22;11258;52.516;13.318;2023-08-31T03:27:34;15.60;99.90
22185;DHT22;11258;52.516;13.318;2023-08-31T03:30:02;15.60;99.90
22185;DHT22;11258;52.516;13.318;2023-08-31T03:32:28;15.70;99.90
22185;DHT22;11258;52.516;13.318;2023-08-31T03:34:54;15.70;99.90
22185;DHT22;11258;52.516;13.318;2023-08-31T03:37:19;15.70;99.90
22185;DHT22;11258;52.516;13.318;2023-08-31T03:39:48;15.80;99.90
22185;DHT22;11258;52.516;13.318;2023-08-31T03:42:13;15.70;99.90
22185;DHT22;11258;52.516;13.318;2023-08-31T03:44:39;15.80;99.90
22185;DHT22;11258;52.516;13.318;2023-08-31T03:47:05;15.70;99.90
22185;DHT22;11258;52.516;13.318;2023-08-31T03:49:31;15.70;99.90
22185;DHT22;11258;52.516;13.318;2023-08-31T03:51:57;15.80;99.90
22185;DHT22;11258;52.516;13.318;2023-08-31T03:54:23;15.70;99.90
22185;DHT22;11258;52.516;13.318;2023-08-31T03:56:49;15.60;99.90
22185;DHT22;11258;52.516;13.318;2023-08-31T03:59:14;15.70;99.90
22185;DHT22;11258;52.516;13.318;2023-08-31T04:01:40;15.60;99.90
22185;DHT22;11258;52.516;13.318;2023-08-31T04:04:06;15.70;99.90
22185;DHT22;11258;52.516;13.318;2023-08-31T04:06:31;15.60;99.90
22185;DHT22;11258;52.516;13.318;2023-08-31T04:08:57;15.60;99.90
22185;DHT22;11258;52.516;13.318;2023-08-31T04:11:24;15.60;99.90
22185;DHT22;11258;52.516;13.318;2023-08-31T04:13:50;15.50;99.90
22185;DHT22;11258;52.516;13.318;2023-08-31T04:16:15;15.50;99.90
22185;DHT22;11258;52.516;13.318;2023-08-31T04:18:41;15.40;99.90
22185;DHT22;11258;52.516;13.318;2023-08-31T04:21:08;15.50;99.90
22185;DHT22;11258;52.516;13.318;2023-08-31T04:23:33;15.50;99.90
22185;DHT22;11258;52.516;13.318;2023-08-31T04:25:59;15.60;99.90
22185;DHT22;11258;52.516;13.318;2023-08-31T04:28:25;15.60;99.90
22185;DHT22;11258;52.516;13.318;2023-08-31T04:30:51;15.60;99.90
22185;DHT22;11258;52.516;13.318;2023-08-31T04:33:18;15.60;99.90
22185;DHT22;11258;52.516;13.318;2023-08-31T04:35:43;15.60;99.90
22185;DHT22;11258;52.516;13.318;2023-08-31T04:38:09;15.50;99.90
22185;DHT22;11258;52.516;13.318;2023-08-31T04:40:35;15.60;99.90
22185;DHT22;11258;52.516;13.318;2023-08-31T04:43:02;15.60;99.90
22185;DHT22;11258;52.516;13.318;2023-08-31T04:45:28;15.60;99.90
22185;DHT22;11258;52.516;13.318;2023-08-31T04:47:54;15.60;99.90
22185;DHT22;11258;52.516;13.318;2023-08-31T04:50:19;15.60;99.90
22185;DHT22;11258;52.516;13.318;2023-08-31T04:52:45;15.50;99.90
22185;DHT22;11258;52.516;13.318;2023-08-31T04:55:13;15.50;99.90
22185;DHT22;11258;52.516;13.318;2023-08-31T04:57:39;15.50;99.90
22185;DHT22;11258;52.516;13.318;2023-08-31T05:00:05;15.50;99.90
22185;DHT22;11258;52.516;13.318;2023-08-31T05:02:32;15.50;99.90
22185;DHT22;11258;52.516;13.318;2023-08-31T05:04:58;15.60;99.90
22185;DHT22;11258;52.516;13.318;2023-08-31T05:07:23;15.60;99.90
22185;DHT22;11258;52.516;13.318;2023-08-31T05:09:49;15.60;99.90
22185;DHT22;11258;52.516;13.318;2023-08-31T05:12:15;15.70;99.90
22185;DHT22;11258;52.516;13.318;2023-08-31T05:14:43;15.60;99.90
22185;DHT22;11258;52.516;13.318;2023-08-31T05:17:08;15.70;99.90
22185;DHT22;11258;52.516;13.318;2023-08-31T05:19:34;15.70;99.90
22185;DHT22;11258;52.516;13.318;2023-08-31T05:22:00;15.80;99.90
22185;DHT22;11258;52.516;13.318;2023-08-31T05:24:26;15.90;99.90
22185;DHT22;11258;52.516;13.318;2023-08-31T05:26:51;15.90;99.90
22185;DHT22;11258;52.516;13.318;2023-08-31T05:29:17;15.90;99.90
22185;DHT22;11258;52.516;13.318;2023-08-31T05:31:43;15.90;99.90
22185;DHT22;11258;52.516;13.318;2023-08-31T05:34:13;15.90;99.90
22185;DHT22;11258;52.516;13.318;2023-08-31T05:36:41;15.90;99.90
22185;DHT22;11258;52.516;13.318;2023-08-31T05:39:06;15.80;99.90
22185;DHT22;11258;52.516;13.318;2023-08-31T05:41:33;15.70;99.90
22185;DHT22;11258;52.516;13.318;2023-08-31T05:43:59;15.70;99.90
22185;DHT22;11258;52.516;13.318;2023-08-31T05:46:25;15.80;99.90
22185;DHT22;11258;52.516;13.318;2023-08-31T05:48:51;15.80;99.90
22185;DHT22;11258;52.516;13.318;2023-08-31T05:51:17;15.80;99.90
22185;DHT22;11258;52.516;13.318;2023-08-31T05:53:43;15.80;99.90
22185;DHT22;11258;52.516;13.318;2023-08-31T05:56:09;15.90;99.90
22185;DHT22;11258;52.516;13.318;2023-08-31T05:58:35;15.90;99.90
22185;DHT22;11258;52.516;13.318;2023-08-31T06:01:02;15.80;99.90
22185;DHT22;11258;52.516;13.318;2023-08-31T06:03:28;15.90;99.90
22185;DHT22;11258;52.516;13.318;2023-08-31T06:05:55;15.90;99.90
22185;DHT22;11258;52.516;13.318;2023-08-31T06:08:21;16.00;99.90
22185;DHT22;11258;52.516;13.318;2023-08-31T06:10:46;16.10;99.90
22185;DHT22;11258;52.516;13.318;2023-08-31T06:13:12;16.10;99.90
22185;DHT22;11258;52.516;13.318;2023-08-31T06:15:37;16.10;99.90
22185;DHT22;11258;52.516;13.318;2023-08-31T06:18:04;16.30;99.90
22185;DHT22;11258;52.516;13.318;2023-08-31T06:20:30;16.30;99.90
22185;DHT22;11258;52.516;13.318;2023-08-31T06:22:56;16.40;99.90
22185;DHT22;11258;52.516;13.318;2023-08-31T06:25:21;16.50;99.90
22185;DHT22;11258;52.516;13.318;2023-08-31T06:27:48;16.50;99.90
22185;DHT22;11258;52.516;13.318;2023-08-31T06:30:13;16.50;99.90
22185;DHT22;11258;52.516;13.318;2023-08-31T06:32:48;16.60;99.90
22185;DHT22;11258;52.516;13.318;2023-08-31T06:35:15;16.60;99.90
22185;DHT22;11258;52.516;13.318;2023-08-31T06:37:42;16.60;99.90
22185;DHT22;11258;52.516;13.318;2023-08-31T06:40:09;16.70;99.90
22185;DHT22;11258;52.516;13.318;2023-08-31T06:42:38;16.80;99.90
22185;DHT22;11258;52.516;13.318;2023-08-31T06:45:05;17.00;99.90
22185;DHT22;11258;52.516;13.318;2023-08-31T06:47:31;17.10;99.90
22185;DHT22;11258;52.516;13.318;2023-08-31T06:49:57;17.10;99.90
22185;DHT22;11258;52.516;13.318;2023-08-31T06:52:30;17.20;99.90
22185;DHT22;11258;52.516;13.318;2023-08-31T06:54:55;17.20;99.90
22185;DHT22;11258;52.516;13.318;2023-08-31T06:57:26;17.20;99.90
22185;DHT22;11258;52.516;13.318;2023-08-31T06:59:52;17.20;99.90
22185;DHT22;11258;52.516;13.318;2023-08-31T07:02:18;16.90;99.90
22185;DHT22;11258;52.516;13.318;2023-08-31T07:04:50;16.90;99.90
22185;DHT22;11258;52.516;13.318;2023-08-31T07:07:17;16.90;99.90
22185;DHT22;11258;52.516;13.318;2023-08-31T07:09:44;16.80;99.90
22185;DHT22;11258;52.516;13.318;2023-08-31T07:12:10;16.80;99.90
22185;DHT22;11258;52.516;13.318;2023-08-31T07:14:35;16.90;99.90
22185;DHT22;11258;52.516;13.318;2023-08-31T07:17:01;17.00;99.90
22185;DHT22;11258;52.516;13.318;2023-08-31T07:19:27;16.80;99.90
22185;DHT22;11258;52.516;13.318;2023-08-31T07:21:53;16.90;99.90
22185;DHT22;11258;52.516;13.318;2023-08-31T07:24:20;17.00;99.90
22185;DHT22;11258;52.516;13.318;2023-08-31T07:26:47;17.10;99.90
22185;DHT22;11258;52.516;13.318;2023-08-31T07:29:12;17.20;99.90
22185;DHT22;11258;52.516;13.318;2023-08-31T07:31:38;17.20;99.90
22185;DHT22;11258;52.516;13.318;2023-08-31T07:34:04;17.20;99.90
22185;DHT22;11258;52.516;13.318;2023-08-31T07:36:30;17.40;99.90
22185;DHT22;11258;52.516;13.318;2023-08-31T07:38:56;17.30;99.90
22185;DHT22;11258;52.516;13.318;2023-08-31T07:41:21;17.30;99.90
22185;DHT22;11258;52.516;13.318;2023-08-31T07:43:47;17.20;99.90
22185;DHT22;11258;52.516;13.318;2023-08-31T07:46:14;17.10;99.90
22185;DHT22;11258;52.516;13.318;2023-08-31T07:48:41;17.10;99.90
22185;DHT22;11258;52.516;13.318;2023-08-31T07:51:06;17.10;99.90
22185;DHT22;11258;52.516;13.318;2023-08-31T07:53:32;17.10;99.90
22185;DHT22;11258;52.516;13.318;2023-08-31T07:55:58;17.60;99.90
22185;DHT22;11258;52.516;13.318;2023-08-31T07:58:23;17.80;99.90
22185;DHT22;11258;52.516;13.318;2023-08-31T08:00:52;18.90;99.90
22185;DHT22;11258;52.516;13.318;2023-08-31T08:03:17;20.10;99.90
22185;DHT22;11258;52.516;13.318;2023-08-31T08:05:43;21.50;99.90
22185;DHT22;11258;52.516;13.318;2023-08-31T08:08:09;23.10;99.90
22185;DHT22;11258;52.516;13.318;2023-08-31T08:10:35;23.50;99.90
22185;DHT22;11258;52.516;13.318;2023-08-31T08:13:01;23.30;99.90
22185;DHT22;11258;52.516;13.318;2023-08-31T08:15:26;23.30;99.90
22185;DHT22;11258;52.516;13.318;2023-08-31T08:17:52;22.70;99.90
22185;DHT22;11258;52.516;13.318;2023-08-31T08:20:19;22.00;99.90
22185;DHT22;11258;52.516;13.318;2023-08-31T08:22:45;21.70;99.90
22185;DHT22;11258;52.516;13.318;2023-08-31T08:25:10;21.20;99.90
22185;DHT22;11258;52.516;13.318;2023-08-31T08:27:36;21.30;99.90
22185;DHT22;11258;52.516;13.318;2023-08-31T08:30:03;21.90;99.90
22185;DHT22;11258;52.516;13.318;2023-08-31T08:32:28;22.60;99.90
22185;DHT22;11258;52.516;13.318;2023-08-31T08:34:54;22.50;99.90
22185;DHT22;11258;52.516;13.318;2023-08-31T08:37:20;22.40;99.90
22185;DHT22;11258;52.516;13.318;2023-08-31T08:39:49;22.60;99.90
22185;DHT22;11258;52.516;13.318;2023-08-31T08:42:17;23.30;99.90
22185;DHT22;11258;52.516;13.318;2023-08-31T08:44:43;22.90;99.90
22185;DHT22;11258;52.516;13.318;2023-08-31T08:47:11;22.70;99.90
22185;DHT22;11258;52.516;13.318;2023-08-31T08:49:37;22.30;99.90
22185;DHT22;11258;52.516;13.318;2023-08-31T08:52:03;21.10;99.90
22185;DHT22;11258;52.516;13.318;2023-08-31T08:54:29;20.40;99.90
22185;DHT22;11258;52.516;13.318;2023-08-31T08:56:54;19.90;99.90
22185;DHT22;11258;52.516;13.318;2023-08-31T08:59:20;20.90;99.90
22185;DHT22;11258;52.516;13.318;2023-08-31T09:01:46;21.80;99.90
22185;DHT22;11258;52.516;13.318;2023-08-31T09:04:12;22.40;99.90
22185;DHT22;11258;52.516;13.318;2023-08-31T09:06:38;22.70;99.90
22185;DHT22;11258;52.516;13.318;2023-08-31T09:09:04;22.70;99.90
22185;DHT22;11258;52.516;13.318;2023-08-31T09:11:30;22.60;99.90
22185;DHT22;11258;52.516;13.318;2023-08-31T09:13:57;22.70;99.90
22185;DHT22;11258;52.516;13.318;2023-08-31T09:18:49;22.00;99.90
22185;DHT22;11258;52.516;13.318;2023-08-31T09:21:15;21.80;99.90
22185;DHT22;11258;52.516;13.318;2023-08-31T09:23:40;21.40;99.90
22185;DHT22;11258;52.516;13.318;2023-08-31T09:26:06;21.00;99.90
22185;DHT22;11258;52.516;13.318;2023-08-31T09:28:32;20.50;99.90
22185;DHT22;11258;52.516;13.318;2023-08-31T09:31:08;20.10;99.90
22185;DHT22;11258;52.516;13.318;2023-08-31T09:33:35;19.90;99.90
22185;DHT22;11258;52.516;13.318;2023-08-31T09:36:01;19.60;99.90
22185;DHT22;11258;52.516;13.318;2023-08-31T09:38:29;20.20;99.90
22185;DHT22;11258;52.516;13.318;2023-08-31T09:41:07;21.10;99.90
22185;DHT22;11258;52.516;13.318;2023-08-31T09:43:32;21.60;99.90
22185;DHT22;11258;52.516;13.318;2023-08-31T09:45:59;22.00;99.90
22185;DHT22;11258;52.516;13.318;2023-08-31T09:48:26;22.30;99.90
22185;DHT22;11258;52.516;13.318;2023-08-31T09:50:52;22.60;99.90
22185;DHT22;11258;52.516;13.318;2023-08-31T09:53:20;22.90;99.90
22185;DHT22;11258;52.516;13.318;2023-08-31T09:55:47;22.80;99.90
22185;DHT22;11258;52.516;13.318;2023-08-31T09:58:18;22.60;99.90
22185;DHT22;11258;52.516;13.318;2023-08-31T10:00:44;22.20;99.90
22185;DHT22;11258;52.516;13.318;2023-08-31T10:03:11;22.30;99.90
22185;DHT22;11258;52.516;13.318;2023-08-31T10:05:44;21.90;99.90
22185;DHT22;11258;52.516;13.318;2023-08-31T10:08:11;21.80;99.90
22185;DHT22;11258;52.516;13.318;2023-08-31T10:10:37;21.50;99.90
22185;DHT22;11258;52.516;13.318;2023-08-31T10:13:07;21.70;99.90
22185;DHT22;11258;52.516;13.318;2023-08-31T10:15:34;22.20;99.90
22185;DHT22;11258;52.516;13.318;2023-08-31T10:18:05;22.50;99.90
22185;DHT22;11258;52.516;13.318;2023-08-31T10:20:32;22.30;99.90
22185;DHT22;11258;52.516;13.318;2023-08-31T10:23:03;22.10;99.90
22185;DHT22;11258;52.516;13.318;2023-08-31T10:28:20;21.50;99.90
22185;DHT22;11258;52.516;13.318;2023-08-31T10:31:06;20.70;99.90
22185;DHT22;11258;52.516;13.318;2023-08-31T10:33:42;19.80;99.90
22185;DHT22;11258;52.516;13.318;2023-08-31T10:36:18;18.90;99.90
22185;DHT22;11258;52.516;13.318;2023-08-31T10:39:00;18.20;99.90
22185;DHT22;11258;52.516;13.318;2023-08-31T10:41:33;18.00;99.90
22185;DHT22;11258;52.516;13.318;2023-08-31T10:43:59;17.80;99.90
22185;DHT22;11258;52.516;13.318;2023-08-31T10:49:12;18.00;99.90
22185;DHT22;11258;52.516;13.318;2023-08-31T10:51:41;18.00;99.90
22185;DHT22;11258;52.516;13.318;2023-08-31T10:54:09;18.10;99.90
22185;DHT22;11258;52.516;13.318;2023-08-31T10:59:52;18.20;99.90
22185;DHT22;11258;52.516;13.318;2023-08-31T11:02:37;18.30;99.90
22185;DHT22;11258;52.516;13.318;2023-08-31T11:07:32;18.50;99.90
22185;DHT22;11258;52.516;13.318;2023-08-31T11:12:44;19.00;99.90
22185;DHT22;11258;52.516;13.318;2023-08-31T11:15:14;19.60;99.90
22185;DHT22;11258;52.516;13.318;2023-08-31T11:17:41;20.10;99.90
22185;DHT22;11258;52.516;13.318;2023-08-31T11:20:15;20.60;99.90
22185;DHT22;11258;52.516;13.318;2023-08-31T11:22:43;20.80;99.90
22185;DHT22;11258;52.516;13.318;2023-08-31T11:25:12;21.10;99.90
22185;DHT22;11258;52.516;13.318;2023-08-31T11:27:38;21.50;99.90
22185;DHT22;11258;52.516;13.318;2023-08-31T11:30:14;21.40;99.90
22185;DHT22;11258;52.516;13.318;2023-08-31T11:32:50;21.40;99.90
22185;DHT22;11258;52.516;13.318;2023-08-31T11:35:17;21.20;99.90
22185;DHT22;11258;52.516;13.318;2023-08-31T11:37:43;20.90;99.90
22185;DHT22;11258;52.516;13.318;2023-08-31T11:40:10;20.40;99.90
22185;DHT22;11258;52.516;13.318;2023-08-31T11:42:37;20.30;99.90
22185;DHT22;11258;52.516;13.318;2023-08-31T11:45:03;20.00;99.90
22185;DHT22;11258;52.516;13.318;2023-08-31T11:47:31;19.60;99.90
22185;DHT22;11258;52.516;13.318;2023-08-31T11:49:58;19.50;99.90
22185;DHT22;11258;52.516;13.318;2023-08-31T11:52:24;19.30;99.90
22185;DHT22;11258;52.516;13.318;2023-08-31T11:54:52;19.20;99.90
22185;DHT22;11258;52.516;13.318;2023-08-31T11:57:19;19.00;99.90
22185;DHT22;11258;52.516;13.318;2023-08-31T11:59:45;18.90;99.90
22185;DHT22;11258;52.516;13.318;2023-08-31T12:02:11;18.60;99.90
22185;DHT22;11258;52.516;13.318;2023-08-31T12:04:44;18.70;99.90
22185;DHT22;11258;52.516;13.318;2023-08-31T12:07:09;18.80;99.90
22185;DHT22;11258;52.516;13.318;2023-08-31T12:09:35;19.20;99.90
22185;DHT22;11258;52.516;13.318;2023-08-31T12:12:01;19.50;99.90
22185;DHT22;11258;52.516;13.318;2023-08-31T12:14:27;19.50;99.90
22185;DHT22;11258;52.516;13.318;2023-08-31T12:17:02;19.90;99.90
22185;DHT22;11258;52.516;13.318;2023-08-31T12:19:31;20.00;99.90
22185;DHT22;11258;52.516;13.318;2023-08-31T12:21:57;20.20;99.90
22185;DHT22;11258;52.516;13.318;2023-08-31T12:24:23;20.10;99.90
22185;DHT22;11258;52.516;13.318;2023-08-31T12:26:50;20.10;99.90
22185;DHT22;11258;52.516;13.318;2023-08-31T12:29:16;20.40;99.90
22185;DHT22;11258;52.516;13.318;2023-08-31T12:31:42;20.50;99.90
22185;DHT22;11258;52.516;13.318;2023-08-31T12:34:09;20.50;99.90
22185;DHT22;11258;52.516;13.318;2023-08-31T12:36:35;20.60;99.90
22185;DHT22;11258;52.516;13.318;2023-08-31T12:39:04;20.70;99.90
22185;DHT22;11258;52.516;13.318;2023-08-31T12:41:33;20.70;99.90
22185;DHT22;11258;52.516;13.318;2023-08-31T12:43:59;20.50;99.90
22185;DHT22;11258;52.516;13.318;2023-08-31T12:46:25;20.60;99.90
22185;DHT22;11258;52.516;13.318;2023-08-31T12:48:51;20.70;99.90
22185;DHT22;11258;52.516;13.318;2023-08-31T12:51:18;20.60;99.90
22185;DHT22;11258;52.516;13.318;2023-08-31T12:53:44;20.60;99.90
22185;DHT22;11258;52.516;13.318;2023-08-31T12:56:09;20.70;99.90
22185;DHT22;11258;52.516;13.318;2023-08-31T12:58:36;20.40;99.90
22185;DHT22;11258;52.516;13.318;2023-08-31T13:01:01;20.60;99.90
22185;DHT22;11258;52.516;13.318;2023-08-31T13:03:27;20.50;99.90
22185;DHT22;11258;52.516;13.318;2023-08-31T13:05:54;20.10;99.90
22185;DHT22;11258;52.516;13.318;2023-08-31T13:08:19;19.80;99.90
22185;DHT22;11258;52.516;13.318;2023-08-31T13:10:51;20.10;99.90
22185;DHT22;11258;52.516;13.318;2023-08-31T13:13:18;20.10;99.90
22185;DHT22;11258;52.516;13.318;2023-08-31T13:15:46;20.10;99.90
22185;DHT22;11258;52.516;13.318;2023-08-31T13:18:12;19.70;99.90
22185;DHT22;11258;52.516;13.318;2023-08-31T13:20:37;19.70;99.90
22185;DHT22;11258;52.516;13.318;2023-08-31T13:23:03;19.60;99.90
22185;DHT22;11258;52.516;13.318;2023-08-31T13:25:29;19.60;99.90
22185;DHT22;11258;52.516;13.318;2023-08-31T13:27:54;19.50;99.90
22185;DHT22;11258;52.516;13.318;2023-08-31T13:30:20;19.50;99.90
22185;DHT22;11258;52.516;13.318;2023-08-31T13:32:46;19.40;99.90
22185;DHT22;11258;52.516;13.318;2023-08-31T13:35:11;19.30;99.90
22185;DHT22;11258;52.516;13.318;2023-08-31T13:37:37;19.00;99.90
22185;DHT22;11258;52.516;13.318;2023-08-31T13:40:04;19.00;99.90
22185;DHT22;11258;52.516;13.318;2023-08-31T13:42:36;19.10;99.90
22185;DHT22;11258;52.516;13.318;2023-08-31T13:45:07;19.20;99.90
22185;DHT22;11258;52.516;13.318;2023-08-31T13:47:33;19.40;99.90
22185;DHT22;11258;52.516;13.318;2023-08-31T13:49:59;19.40;99.90
22185;DHT22;11258;52.516;13.318;2023-08-31T13:52:25;19.40;99.90
22185;DHT22;11258;52.516;13.318;2023-08-31T13:54:51;19.20;99.90
22185;DHT22;11258;52.516;13.318;2023-08-31T13:57:18;19.20;99.90
22185;DHT22;11258;52.516;13.318;2023-08-31T13:59:44;19.20;99.90
22185;DHT22;11258;52.516;13.318;2023-08-31T14:02:10;19.10;99.90
22185;DHT22;11258;52.516;13.318;2023-08-31T14:04:35;19.10;99.90
22185;DHT22;11258;52.516;13.318;2023-08-31T14:07:01;19.00;99.90
22185;DHT22;11258;52.516;13.318;2023-08-31T14:09:28;19.00;99.90
22185;DHT22;11258;52.516;13.318;2023-08-31T14:11:54;18.90;99.90
22185;DHT22;11258;52.516;13.318;2023-08-31T14:14:21;19.10;99.90
22185;DHT22;11258;52.516;13.318;2023-08-31T14:16:47;19.40;99.90
22185;DHT22;11258;52.516;13.318;2023-08-31T14:19:13;19.40;99.90
22185;DHT22;11258;52.516;13.318;2023-08-31T14:21:39;19.40;99.90
22185;DHT22;11258;52.516;13.318;2023-08-31T14:24:05;19.30;99.90
22185;DHT22;11258;52.516;13.318;2023-08-31T14:26:31;19.20;99.90
22185;DHT22;11258;52.516;13.318;2023-08-31T14:28:57;19.40;99.90
22185;DHT22;11258;52.516;13.318;2023-08-31T14:31:22;19.40;99.90
22185;DHT22;11258;52.516;13.318;2023-08-31T14:33:48;19.40;99.90
22185;DHT22;11258;52.516;13.318;2023-08-31T14:36:15;19.50;99.90
22185;DHT22;11258;52.516;13.318;2023-08-31T14:38:41;19.30;99.90
22185;DHT22;11258;52.516;13.318;2023-08-31T14:41:06;19.20;99.90
22185;DHT22;11258;52.516;13.318;2023-08-31T14:43:33;19.20;99.90
22185;DHT22;11258;52.516;13.318;2023-08-31T14:45:59;19.10;99.90
22185;DHT22;11258;52.516;13.318;2023-08-31T14:48:27;19.00;99.90
22185;DHT22;11258;52.516;13.318;2023-08-31T14:50:53;19.00;99.90
22185;DHT22;11258;52.516;13.318;2023-08-31T14:53:18;19.00;99.90
22185;DHT22;11258;52.516;13.318;2023-08-31T14:55:50;19.00;99.90
22185;DHT22;11258;52.516;13.318;2023-08-31T14:58:16;19.10;99.90
22185;DHT22;11258;52.516;13.318;2023-08-31T15:00:42;19.10;99.90
22185;DHT22;11258;52.516;13.318;2023-08-31T15:03:07;19.10;99.90
22185;DHT22;11258;52.516;13.318;2023-08-31T15:05:34;19.00;99.90
22185;DHT22;11258;52.516;13.318;2023-08-31T15:08:01;18.90;99.90
22185;DHT22;11258;52.516;13.318;2023-08-31T15:10:27;18.90;99.90
22185;DHT22;11258;52.516;13.318;2023-08-31T15:12:53;18.80;99.90
22185;DHT22;11258;52.516;13.318;2023-08-31T15:15:24;18.70;99.90
22185;DHT22;11258;52.516;13.318;2023-08-31T15:17:50;18.80;99.90
22185;DHT22;11258;52.516;13.318;2023-08-31T15:20:16;18.60;99.90
22185;DHT22;11258;52.516;13.318;2023-08-31T15:22:42;18.80;99.90
22185;DHT22;11258;52.516;13.318;2023-08-31T15:25:07;18.90;99.90
22185;DHT22;11258;52.516;13.318;2023-08-31T15:27:33;18.90;99.90
22185;DHT22;11258;52.516;13.318;2023-08-31T15:29:59;18.90;99.90
22185;DHT22;11258;52.516;13.318;2023-08-31T15:32:24;18.70;99.90
22185;DHT22;11258;52.516;13.318;2023-08-31T15:34:50;18.40;99.90
22185;DHT22;11258;52.516;13.318;2023-08-31T15:37:16;18.20;99.90
22185;DHT22;11258;52.516;13.318;2023-08-31T15:39:41;18.00;99.90